CST,Max TemperatureF,Mean TemperatureF,Min TemperatureF,Max Dew PointF,MeanDew PointF,Min DewpointF,Max Humidity, Mean Humidity, Min Humidity, Max Sea Level PressureIn, Mean Sea Level PressureIn, Min Sea Level PressureIn, Max VisibilityMiles, Mean VisibilityMiles, Min VisibilityMiles, Max Wind SpeedMPH, Mean Wind SpeedMPH, Max Gust SpeedMPH,PrecipitationIn, CloudCover, Events, WindDirDegrees
2012-11-1,41,34,28,32,25,18,81,65,39,30.03,29.94,29.88,10,10,10,16,8,20,0.00,7,,331
2012-11-2,41,31,21,27,23,19,100,71,45,30.16,30.10,30.03,10,10,10,8,5,,0.00,1,,24
2012-11-3,37,34,30,28,25,23,87,73,65,30.23,30.20,30.16,10,10,5,7,4,,0.00,8,Snow,84
2012-11-4,42,32,23,30,26,21,93,74,57,30.23,30.20,30.15,10,10,10,8,4,,0.00,3,,77
2012-11-5,42,36,30,30,27,23,80,73,57,30.21,30.13,29.94,10,10,10,10,6,,0.00,7,,138
2012-11-6,39,36,32,36,33,30,100,91,75,29.93,29.81,29.73,10,7,1,17,9,21,0.07,8,Rain-Snow,242
2012-11-7,39,36,32,34,33,32,100,90,75,30.09,30.05,29.94,10,9,2,9,6,,0.00,7,,246
2012-11-8,50,41,32,36,33,30,100,81,58,30.07,29.99,29.91,10,10,5,15,8,18,0.00,2,,195
2012-11-9,44,40,37,36,35,34,87,78,71,30.08,30.03,30.00,10,10,10,15,10,21,0.00,7,,65
2012-11-10,57,46,37,54,43,36,100,92,87,29.89,29.67,29.52,10,4,0,17,11,24,0.23,6,Rain-Thunderstorm,121
2012-11-11,60,42,23,54,33,16,100,87,74,29.86,29.69,29.53,10,9,4,25,15,33,0.05,8,Rain-Snow,259
2012-11-12,23,21,19,18,15,12,86,74,68,30.23,29.99,29.86,10,9,1,22,14,26,0.00,8,Snow,261
2012-11-13,35,25,15,27,20,14,93,73,52,30.35,30.30,30.23,10,10,10,13,7,,0.00,4,,193
2012-11-14,44,38,32,32,29,25,93,78,61,30.29,30.23,30.16,10,10,10,10,5,,0.00,3,,154
2012-11-15,50,38,26,32,25,10,93,65,43,30.42,30.23,30.13,10,10,7,14,5,18,0.00,2,,293
2012-11-16,41,30,19,28,20,10,93,67,45,30.48,30.42,30.35,10,10,10,9,4,,0.00,0,,125
2012-11-17,51,40,28,36,32,28,100,77,54,30.36,30.29,30.25,10,8,2,15,8,18,0.00,2,,149
2012-11-18,53,46,39,32,32,30,70,61,44,30.25,30.16,30.10,10,10,10,18,11,25,0.00,4,,156
2012-11-19,51,42,33,39,35,32,100,71,58,30.13,30.07,30.03,10,9,0,13,7,,0.00,6,Fog-Rain,150
2012-11-20,50,39,28,36,31,27,100,84,50,30.14,30.10,30.05,10,6,0,7,2,,0.00,2,Fog,291
2012-11-21,55,42,28,41,35,28,100,79,51,30.06,29.91,29.73,10,8,2,12,4,,0.00,0,,158
2012-11-22,55,39,23,41,35,19,100,73,54,29.84,29.68,29.59,10,8,0,28,13,34,0.01,3,Snow,238
2012-11-23,23,20,15,19,15,9,93,79,68,30.28,30.12,29.84,10,7,1,26,19,32,0.00,8,Snow,317
2012-11-24,26,16,5,19,11,1,92,78,68,30.27,30.06,29.79,10,10,4,14,7,22,0.00,5,Snow,167
2012-11-25,28,26,23,21,20,14,93,77,64,30.08,29.90,29.77,10,10,4,18,8,24,0.00,8,Snow,289
2012-11-26,21,13,5,12,5,1,85,73,58,30.34,30.27,30.10,10,10,10,16,10,23,0.00,2,Snow,301
2012-11-27,30,21,12,21,15,9,93,75,64,30.29,30.16,30.06,10,10,10,13,7,,0.00,6,Snow,228
2012-11-28,28,24,21,23,19,14,86,80,74,30.30,30.20,30.09,10,10,10,14,7,16,0.00,5,,234
2012-11-29,33,26,19,27,24,18,100,84,69,30.14,30.10,30.05,10,9,4,13,6,17,0.00,1,,60
2012-11-30,32,30,28,32,26,25,100,87,80,30.20,30.14,30.08,10,8,2,15,8,18,0.00,8,,105